Time;durP1;ratioP1;P1;durP2;ratioP2;P2;SDS_P1;SDS_P2;PMS_P1;PMS_P2;Temp;Humidity;BMP_temperature;BMP_pressure;BME280_temperature;BME280_humidity;BME280_pressure;Samples;Min_cycle;Max_cycle;Signal;HPM_P1;HPM_P2
2022/09/25 06:08:14;;;;;;;8.60;6.97;;;9.20;99.90;;;;;;5078643;28;20578;-87
2022/09/25 08:06:08;;;;;;;6.03;5.43;;;11.20;99.90;;;;;;5138920;27;20263;-87
2022/09/25 08:11:44;;;;;;;5.70;5.20;;;11.10;99.90;;;;;;5129047;27;20276;-86
2022/09/25 08:14:13;;;;;;;7.57;5.77;;;11.20;99.90;;;;;;5094221;28;20267;-86
2022/09/25 08:16:39;;;;;;;6.13;5.53;;;11.30;99.90;;;;;;5094037;28;20176;-85
2022/09/25 08:19:05;;;;;;;8.33;6.70;;;11.50;99.90;;;;;;5094917;28;20226;-86
2022/09/25 08:21:32;;;;;;;6.47;5.63;;;11.60;99.90;;;;;;5094395;28;20184;-85
2022/09/25 08:23:59;;;;;;;5.20;4.70;;;11.70;99.90;;;;;;5095630;28;20245;-86
2022/09/25 08:26:27;;;;;;;6.87;6.17;;;11.80;99.90;;;;;;5093731;28;20188;-85
2022/09/25 08:28:53;;;;;;;6.80;6.10;;;12.00;99.90;;;;;;5093673;28;20208;-86
2022/09/25 08:31:19;;;;;;;10.73;5.23;;;12.20;99.90;;;;;;5094773;28;20715;-83
2022/09/25 08:33:46;;;;;;;6.23;5.63;;;12.40;99.90;;;;;;5093171;28;20218;-85
2022/09/25 08:36:12;;;;;;;6.27;5.50;;;12.60;99.90;;;;;;5094145;28;20747;-85
2022/09/25 08:38:37;;;;;;;6.83;6.00;;;13.00;99.90;;;;;;5093178;28;20242;-85
2022/09/25 08:41:17;;;;;;;6.43;5.53;;;13.30;99.90;;;;;;5093961;28;20181;-85
2022/09/25 08:44:00;;;;;;;6.27;5.67;;;13.40;99.90;;;;;;5095279;28;20253;-86
2022/09/25 08:49:32;;;;;;;7.23;5.30;;;13.20;99.90;;;;;;5094089;28;20171;-82
2022/09/25 08:52:01;;;;;;;5.20;4.70;;;13.00;99.90;;;;;;5096336;28;20259;-86
2022/09/25 08:54:30;;;;;;;7.43;4.63;;;12.80;99.90;;;;;;5094878;28;20210;-86
2022/09/25 08:57:36;;;;;;;4.93;4.53;;;12.90;99.90;;;;;;5095411;28;20219;-84
2022/09/25 09:00:05;;;;;;;5.67;5.03;;;12.90;99.90;;;;;;5095192;28;20168;-84
2022/09/25 09:03:00;;;;;;;7.33;4.80;;;13.00;99.90;;;;;;5096465;28;20172;-86
2022/09/25 09:05:28;;;;;;;8.30;4.80;;;13.20;99.90;;;;;;5096366;28;20192;-85
2022/09/25 09:08:13;;;;;;;8.60;5.47;;;13.40;99.90;;;;;;5096088;28;20234;-84
2022/09/25 09:10:52;;;;;;;5.57;5.07;;;14.00;99.90;;;;;;5096953;28;20568;-85
2022/09/25 09:13:48;;;;;;;5.60;5.07;;;14.60;99.90;;;;;;5095229;28;20223;-83
2022/09/25 09:16:42;;;;;;;6.10;4.70;;;15.10;99.90;;;;;;5095017;28;20172;-84
2022/09/25 09:19:10;;;;;;;6.07;4.70;;;15.20;99.90;;;;;;5095187;28;20164;-84
2022/09/25 09:21:37;;;;;;;5.17;4.67;;;15.00;99.90;;;;;;5091945;28;20249;-84
2022/09/25 09:24:11;;;;;;;5.30;4.80;;;14.80;99.90;;;;;;5080613;28;20295;-84
2022/09/25 09:26:40;;;;;;;8.57;5.50;;;14.70;99.90;;;;;;5080183;28;20214;-85
2022/09/25 09:29:20;;;;;;;8.23;5.43;;;14.70;99.90;;;;;;5080597;28;20187;-84
2022/09/25 09:32:30;;;;;;;6.47;5.73;;;14.40;99.90;;;;;;5080809;28;20161;-85
2022/09/25 09:35:25;;;;;;;9.07;5.90;;;14.20;99.90;;;;;;5072957;28;20205;-82
2022/09/25 09:37:56;;;;;;;6.03;5.43;;;14.10;99.90;;;;;;5071023;28;20181;-83
2022/09/25 09:41:03;;;;;;;6.30;5.70;;;14.20;99.90;;;;;;5084436;28;20169;-83
2022/09/25 09:43:54;;;;;;;7.77;5.67;;;14.40;99.90;;;;;;5083072;28;20231;-85
2022/09/25 09:47:02;;;;;;;6.50;5.90;;;14.60;99.90;;;;;;5085216;28;20184;-86
2022/09/25 09:49:36;;;;;;;6.63;5.90;;;14.80;99.90;;;;;;5079513;28;20181;-86
2022/09/25 09:52:22;;;;;;;6.40;5.57;;;14.90;99.90;;;;;;5095949;28;20176;-84
2022/09/25 09:54:56;;;;;;;19.80;15.93;;;15.00;99.90;;;;;;5086982;28;20228;-86
2022/09/25 09:57:26;;;;;;;10.00;9.10;;;14.90;99.90;;;;;;5081662;28;20236;-86
2022/09/25 10:00:12;;;;;;;21.50;19.07;;;14.90;99.90;;;;;;5081885;28;20205;-84
2022/09/25 10:02:49;;;;;;;31.87;27.30;;;15.00;99.90;;;;;;5081053;28;20169;-85
2022/09/25 10:05:31;;;;;;;8.97;8.17;;;15.00;99.90;;;;;;5079635;28;20571;-85
2022/09/25 10:07:57;;;;;;;5.43;4.93;;;14.90;99.90;;;;;;5079469;28;20696;-84
2022/09/25 10:10:33;;;;;;;5.63;5.00;;;14.90;99.90;;;;;;5079161;28;20208;-85
2022/09/25 10:13:05;;;;;;;4.77;4.37;;;15.00;99.90;;;;;;5078485;28;20173;-87
2022/09/25 10:15:44;;;;;;;5.50;5.00;;;15.10;99.90;;;;;;5081828;28;20643;-86
2022/09/25 10:18:12;;;;;;;6.30;5.40;;;15.30;99.90;;;;;;5079066;28;20272;-86
2022/09/25 10:20:45;;;;;;;6.60;5.70;;;15.50;99.90;;;;;;5080941;28;20209;-85
2022/09/25 10:23:28;;;;;;;6.97;6.33;;;15.50;99.90;;;;;;5079597;28;20276;-85
2022/09/25 10:25:54;;;;;;;6.10;5.50;;;15.40;99.90;;;;;;5079427;28;20261;-86
2022/09/25 10:28:31;;;;;;;7.60;6.17;;;15.40;99.90;;;;;;5079101;28;20246;-84
2022/09/25 10:30:58;;;;;;;6.47;5.87;;;15.50;99.90;;;;;;5079579;28;20201;-87
2022/09/25 10:33:27;;;;;;;6.80;6.20;;;15.60;99.90;;;;;;5078111;28;20651;-87
2022/09/25 10:35:53;;;;;;;6.87;6.27;;;15.80;99.90;;;;;;5080759;28;20532;-86
2022/09/25 10:38:25;;;;;;;6.27;5.67;;;16.20;99.90;;;;;;5078582;28;20178;-86
2022/09/25 10:41:20;;;;;;;6.30;5.70;;;16.40;99.90;;;;;;5079613;28;20196;-85
2022/09/25 10:43:52;;;;;;;6.50;5.90;;;16.40;99.90;;;;;;5080057;28;20223;-84
2022/09/25 10:52:06;;;;;;;8.17;6.83;;;16.10;99.90;;;;;;5080643;28;20175;-86
2022/09/25 10:54:33;;;;;;;5.83;5.27;;;15.90;99.90;;;;;;5079445;28;20196;-87
2022/09/25 10:56:59;;;;;;;7.30;6.13;;;16.00;99.90;;;;;;5079362;28;20189;-84
2022/09/25 10:59:27;;;;;;;5.10;4.60;;;16.00;99.90;;;;;;5079577;28;20186;-86
2022/09/25 11:01:54;;;;;;;9.30;5.70;;;16.30;99.90;;;;;;5080900;28;20168;-84
2022/09/25 11:04:23;;;;;;;5.67;5.07;;;17.20;99.90;;;;;;5079291;28;20680;-87
2022/09/25 11:06:51;;;;;;;5.33;4.80;;;17.90;99.90;;;;;;5079941;28;20178;-87
2022/09/25 11:09:22;;;;;;;5.37;4.70;;;17.90;99.90;;;;;;5080215;28;20536;-84
2022/09/25 11:11:51;;;;;;;5.53;5.03;;;17.40;99.90;;;;;;5082314;28;20167;-84
2022/09/25 11:14:23;;;;;;;6.93;5.83;;;16.90;99.90;;;;;;5081427;28;20216;-84
2022/09/25 11:16:52;;;;;;;6.20;5.60;;;16.40;99.90;;;;;;5080941;28;20183;-85
2022/09/25 11:19:24;;;;;;;7.53;5.70;;;16.00;99.90;;;;;;5081308;28;20187;-85
2022/09/25 11:22:09;;;;;;;6.90;6.20;;;15.70;99.90;;;;;;5081352;28;20531;-86
2022/09/25 11:24:45;;;;;;;8.13;6.47;;;15.40;99.90;;;;;;5080824;28;20226;-85
2022/09/25 11:27:33;;;;;;;11.27;8.30;;;15.20;99.90;;;;;;5078992;28;20170;-85
2022/09/25 11:30:11;;;;;;;23.33;14.87;;;15.10;99.90;;;;;;5081777;28;20200;-88
2022/09/25 11:32:39;;;;;;;26.20;15.47;;;15.10;99.90;;;;;;5081502;28;20210;-87
2022/09/25 11:35:20;;;;;;;21.53;13.60;;;15.00;99.90;;;;;;5083029;28;20250;-84
2022/09/25 11:38:06;;;;;;;9.90;8.10;;;15.00;99.90;;;;;;5086413;28;20651;-84
2022/09/25 11:43:43;;;;;;;11.97;7.53;;;15.10;99.90;;;;;;5081446;28;20200;-84
2022/09/25 11:46:26;;;;;;;6.10;5.10;;;15.10;99.90;;;;;;5079237;28;20185;-82
2022/09/25 11:48:55;;;;;;;5.53;5.00;;;15.00;99.90;;;;;;5079791;28;20176;-86
2022/09/25 11:51:27;;;;;;;5.87;4.33;;;14.90;99.90;;;;;;5081762;28;20231;-82
2022/09/25 11:54:05;;;;;;;6.03;4.57;;;14.80;99.90;;;;;;5080680;28;20193;-84
2022/09/25 11:56:38;;;;;;;6.50;5.43;;;14.80;99.90;;;;;;5081780;28;20568;-85
2022/09/25 11:59:24;;;;;;;4.87;4.30;;;14.80;99.90;;;;;;5082241;28;20217;-83
2022/09/25 12:02:00;;;;;;;8.27;6.73;;;14.90;99.90;;;;;;5082003;28;20172;-84
2022/09/25 12:04:55;;;;;;;5.67;4.97;;;15.00;99.90;;;;;;5082378;28;20599;-84
2022/09/25 12:07:55;;;;;;;5.57;5.03;;;15.00;99.90;;;;;;5081046;28;20164;-85
2022/09/25 12:11:01;;;;;;;5.83;5.23;;;15.10;99.90;;;;;;5080231;28;20693;-84
2022/09/25 12:13:55;;;;;;;5.30;4.80;;;15.20;99.90;;;;;;5081148;28;20211;-84
2022/09/25 12:16:32;;;;;;;5.37;4.87;;;15.50;99.90;;;;;;5080647;28;20165;-85
2022/09/25 12:19:26;;;;;;;5.13;4.67;;;15.70;99.90;;;;;;5080848;28;20195;-83
2022/09/25 12:22:09;;;;;;;4.57;4.00;;;15.80;99.90;;;;;;5080665;28;20237;-84
2022/09/25 12:25:07;;;;;;;5.63;4.80;;;15.90;99.90;;;;;;5079567;28;20208;-84
2022/09/25 12:27:40;;;;;;;5.90;4.70;;;16.00;99.90;;;;;;5078461;28;20186;-85
2022/09/25 12:30:14;;;;;;;4.70;4.23;;;16.10;99.90;;;;;;5080314;28;20204;-87
2022/09/25 12:33:14;;;;;;;6.20;5.37;;;16.20;99.90;;;;;;5078946;28;20167;-83
2022/09/25 12:35:54;;;;;;;5.33;4.70;;;16.40;99.90;;;;;;5074322;28;20724;-84
2022/09/25 12:38:43;;;;;;;5.47;4.73;;;16.50;99.90;;;;;;5078376;28;20222;-82
2022/09/25 12:41:23;;;;;;;6.03;4.60;;;16.50;99.90;;;;;;5080216;28;20261;-84
2022/09/25 12:44:00;;;;;;;4.70;4.23;;;16.60;99.90;;;;;;5080540;28;20190;-86
2022/09/25 12:46:46;;;;;;;4.87;4.37;;;16.70;99.90;;;;;;5078055;28;20639;-85
2022/09/25 12:49:30;;;;;;;5.07;4.37;;;16.60;99.90;;;;;;5077265;28;20255;-85
2022/09/25 12:52:02;;;;;;;4.63;4.23;;;16.30;99.90;;;;;;5076171;28;20265;-84
2022/09/25 12:54:49;;;;;;;4.93;4.43;;;16.10;99.90;;;;;;5075993;28;20191;-86
2022/09/25 12:57:23;;;;;;;4.50;4.10;;;16.00;99.90;;;;;;5078372;28;20166;-85
2022/09/25 12:59:52;;;;;;;5.77;4.70;;;15.80;99.90;;;;;;5080529;28;20227;-84
2022/09/25 13:02:31;;;;;;;5.73;4.03;;;15.70;99.90;;;;;;5081608;28;20174;-88
2022/09/25 13:05:20;;;;;;;6.47;4.57;;;15.80;99.90;;;;;;5079660;28;20201;-84
2022/09/25 13:08:23;;;;;;;5.50;4.43;;;15.70;99.90;;;;;;5080396;28;20173;-84
2022/09/25 13:11:00;;;;;;;4.87;3.87;;;15.80;99.90;;;;;;5078772;28;20217;-83
2022/09/25 13:13:31;;;;;;;4.97;4.47;;;16.10;99.90;;;;;;5079892;28;20663;-84
2022/09/25 13:15:59;;;;;;;4.20;3.80;;;16.20;99.90;;;;;;5081851;28;20159;-83
2022/09/25 13:18:27;;;;;;;5.63;4.00;;;16.30;99.90;;;;;;5078720;28;20206;-83
2022/09/25 13:21:00;;;;;;;7.57;4.60;;;16.10;99.90;;;;;;5079643;28;20179;-84
2022/09/25 13:23:35;;;;;;;4.70;4.13;;;16.00;99.90;;;;;;5079845;28;20268;-85
2022/09/25 13:26:12;;;;;;;4.97;4.50;;;15.90;99.90;;;;;;5078459;28;20172;-85
2022/09/25 13:28:47;;;;;;;4.90;4.10;;;15.80;99.90;;;;;;5078189;28;20169;-84
2022/09/25 13:31:26;;;;;;;7.23;5.70;;;15.60;99.90;;;;;;5081546;28;20208;-85
2022/09/25 13:34:04;;;;;;;5.87;5.23;;;15.40;99.90;;;;;;5082867;28;20189;-85
2022/09/25 13:36:46;;;;;;;6.00;5.40;;;15.30;99.90;;;;;;5080583;28;20238;-83
2022/09/25 13:42:15;;;;;;;5.43;4.93;;;14.90;99.90;;;;;;5082102;28;20200;-84
2022/09/25 13:44:43;;;;;;;5.50;4.87;;;15.00;99.90;;;;;;5080448;28;20196;-85
2022/09/25 13:47:24;;;;;;;5.37;4.80;;;15.00;99.90;;;;;;5082047;28;20201;-84
2022/09/25 13:50:05;;;;;;;7.87;5.10;;;15.00;99.90;;;;;;5082031;28;20769;-85
2022/09/25 13:52:37;;;;;;;5.37;4.77;;;15.00;99.90;;;;;;5082153;28;20157;-85
2022/09/25 13:55:12;;;;;;;5.40;4.47;;;15.30;99.90;;;;;;5084482;28;20193;-85
2022/09/25 13:57:57;;;;;;;5.77;5.07;;;15.40;99.90;;;;;;5083773;28;20216;-84
2022/09/25 14:00:43;;;;;;;5.53;4.73;;;15.50;99.90;;;;;;5085898;28;20531;-86
2022/09/25 14:03:31;;;;;;;5.37;4.50;;;15.60;99.90;;;;;;5079913;28;20548;-85
2022/09/25 14:05:58;;;;;;;6.03;5.43;;;15.80;99.90;;;;;;5084851;28;20161;-83
2022/09/25 14:08:26;;;;;;;5.37;4.87;;;15.80;99.90;;;;;;5083938;28;20173;-85
2022/09/25 14:10:56;;;;;;;6.87;4.63;;;15.80;99.90;;;;;;5083800;28;20213;-85
2022/09/25 14:13:24;;;;;;;5.50;4.77;;;15.80;99.90;;;;;;5085192;28;20225;-86
2022/09/25 14:15:53;;;;;;;4.00;3.60;;;15.80;99.90;;;;;;5085021;28;20178;-85
2022/09/25 14:18:31;;;;;;;5.07;4.57;;;15.50;99.90;;;;;;5087511;28;20194;-84
2022/09/25 14:20:59;;;;;;;6.33;5.03;;;15.30;99.90;;;;;;5090532;28;20165;-85
2022/09/25 14:23:28;;;;;;;6.13;5.23;;;15.20;99.90;;;;;;5097489;28;20203;-83
2022/09/25 14:26:15;;;;;;;6.77;5.27;;;15.10;99.90;;;;;;5097464;28;20195;-83
2022/09/25 14:28:46;;;;;;;6.73;5.47;;;14.90;99.90;;;;;;5090381;28;20188;-85
2022/09/25 14:31:14;;;;;;;7.90;6.07;;;14.70;99.90;;;;;;5083989;28;20330;-84
2022/09/25 14:33:46;;;;;;;8.23;5.23;;;14.70;99.90;;;;;;5083803;28;20224;-85
2022/09/25 14:36:36;;;;;;;6.83;5.67;;;14.60;99.90;;;;;;5083133;28;20180;-84
2022/09/25 14:39:24;;;;;;;7.47;5.60;;;14.50;99.90;;;;;;5082665;28;20189;-84
2022/09/25 14:42:17;;;;;;;6.10;5.50;;;14.30;99.90;;;;;;5082125;28;20580;-84
2022/09/25 14:44:49;;;;;;;7.57;5.50;;;14.20;99.90;;;;;;5081921;28;20212;-85
2022/09/25 14:47:16;;;;;;;6.73;5.50;;;14.10;99.90;;;;;;5082123;28;20192;-84
2022/09/25 14:49:48;;;;;;;7.70;6.23;;;14.00;99.90;;;;;;5082579;28;20181;-85
2022/09/25 14:52:20;;;;;;;7.03;5.93;;;14.00;99.90;;;;;;5082591;28;20164;-85
2022/09/25 14:54:48;;;;;;;8.50;5.27;;;13.90;99.90;;;;;;5083401;28;20239;-84
2022/09/25 14:57:24;;;;;;;7.53;6.70;;;13.90;99.90;;;;;;5082611;28;20224;-85
2022/09/25 14:59:52;;;;;;;9.67;8.13;;;14.00;99.90;;;;;;5084171;28;20517;-85
2022/09/25 15:02:42;;;;;;;11.17;8.33;;;14.00;99.90;;;;;;5084998;28;20167;-85
2022/09/25 15:05:26;;;;;;;7.13;6.43;;;14.00;99.90;;;;;;5078702;28;20216;-84
2022/09/25 15:07:54;;;;;;;9.30;5.67;;;14.10;99.90;;;;;;5078960;28;20169;-83
2022/09/25 15:10:23;;;;;;;6.73;5.70;;;14.20;99.90;;;;;;5080418;28;20250;-86
2022/09/25 15:12:48;;;;;;;6.47;5.17;;;14.10;99.90;;;;;;5080599;28;20248;-84
2022/09/25 15:15:16;;;;;;;7.93;5.33;;;14.10;99.90;;;;;;5081290;28;20682;-85
2022/09/25 15:17:56;;;;;;;8.43;6.70;;;14.10;99.90;;;;;;5080400;28;20192;-85
2022/09/25 15:20:27;;;;;;;7.30;5.73;;;14.10;99.90;;;;;;5079708;28;20232;-84
2022/09/25 15:23:03;;;;;;;7.03;5.57;;;14.10;99.90;;;;;;5078800;28;20189;-84
2022/09/25 15:25:35;;;;;;;8.47;6.37;;;14.10;99.90;;;;;;5078381;28;20173;-84
2022/09/25 15:28:08;;;;;;;9.93;7.00;;;14.00;99.90;;;;;;5076534;28;20237;-83
2022/09/25 15:30:36;;;;;;;7.47;5.70;;;14.00;99.90;;;;;;5077597;28;20264;-84
2022/09/25 15:33:02;;;;;;;8.37;6.13;;;14.00;99.90;;;;;;5080264;28;20311;-85
2022/09/25 15:35:29;;;;;;;8.27;5.67;;;13.90;99.90;;;;;;5082158;28;20196;-84
2022/09/25 15:38:06;;;;;;;7.10;5.23;;;13.80;99.90;;;;;;5080987;28;20177;-85
2022/09/25 15:40:33;;;;;;;8.43;6.20;;;13.80;99.90;;;;;;5080499;28;20171;-87
2022/09/25 15:43:00;;;;;;;7.37;5.43;;;13.70;99.90;;;;;;5080387;28;20215;-86
2022/09/25 15:45:45;;;;;;;5.43;4.33;;;13.60;99.90;;;;;;5080299;28;20177;-87
2022/09/25 15:48:20;;;;;;;3.20;2.90;;;13.50;99.90;;;;;;5078407;28;20177;-84
2022/09/25 15:50:47;;;;;;;3.43;2.87;;;13.30;99.90;;;;;;5080532;28;20184;-84
2022/09/25 15:53:43;;;;;;;4.60;3.07;;;12.70;99.90;;;;;;5079954;28;20169;-83
2022/09/25 15:56:12;;;;;;;3.07;2.77;;;12.70;99.90;;;;;;5079313;28;20642;-84
2022/09/25 15:58:48;;;;;;;3.00;2.70;;;12.40;99.90;;;;;;5081282;28;20169;-85
2022/09/25 16:06:50;;;;;;;5.50;3.10;;;12.10;99.90;;;;;;5083525;28;20180;-84
2022/09/25 16:09:31;;;;;;;4.50;3.30;;;12.10;99.90;;;;;;5081404;28;20288;-83
2022/09/25 16:12:15;;;;;;;4.83;4.10;;;12.10;99.90;;;;;;5079337;28;20168;-82
2022/09/25 16:14:41;;;;;;;6.07;5.17;;;12.10;99.90;;;;;;5079764;28;20670;-84
2022/09/25 16:17:30;;;;;;;4.80;3.37;;;12.00;99.90;;;;;;5080829;28;20169;-84
2022/09/25 16:20:27;;;;;;;4.20;3.73;;;11.90;99.90;;;;;;5079553;28;20615;-85
2022/09/25 16:23:00;;;;;;;8.80;6.53;;;11.90;99.90;;;;;;5080847;28;20176;-83
2022/09/25 16:25:42;;;;;;;6.73;4.93;;;11.90;99.90;;;;;;5079575;28;20264;-83
2022/09/25 16:28:19;;;;;;;25.80;19.63;;;11.80;99.90;;;;;;5079750;28;20255;-85
2022/09/25 16:30:49;;;;;;;12.97;11.07;;;11.90;99.90;;;;;;5078625;28;20207;-85
2022/09/25 16:33:27;;;;;;;8.93;7.33;;;11.80;99.90;;;;;;5078372;28;20584;-83
2022/09/25 16:35:54;;;;;;;15.97;10.53;;;11.80;99.90;;;;;;5079997;28;20518;-85
2022/09/25 16:38:31;;;;;;;10.63;7.70;;;11.80;99.90;;;;;;5081018;28;20176;-84
2022/09/25 16:41:06;;;;;;;13.17;10.90;;;11.80;99.90;;;;;;5081085;28;20173;-84
2022/09/25 16:43:34;;;;;;;7.40;6.63;;;11.70;99.90;;;;;;5078706;28;20195;-84
2022/09/25 16:46:03;;;;;;;15.53;8.10;;;11.70;99.90;;;;;;5078688;28;20687;-84
2022/09/25 16:48:38;;;;;;;9.50;8.50;;;11.70;99.90;;;;;;5057672;28;20185;-85
2022/09/25 16:51:21;;;;;;;12.13;8.30;;;11.60;99.90;;;;;;5057891;28;20612;-85
2022/09/25 16:53:51;;;;;;;9.07;6.23;;;11.60;99.90;;;;;;5058855;28;20197;-85
2022/09/25 16:56:25;;;;;;;10.83;6.90;;;11.70;99.90;;;;;;5057644;28;20662;-83
2022/09/25 16:58:52;;;;;;;8.63;6.47;;;11.60;99.90;;;;;;5056977;28;20546;-83
2022/09/25 17:01:19;;;;;;;6.03;4.80;;;11.50;99.90;;;;;;5058329;28;20663;-83
2022/09/25 17:03:49;;;;;;;7.23;5.17;;;11.40;99.90;;;;;;5057409;28;20286;-83
2022/09/25 17:06:25;;;;;;;7.10;5.77;;;11.30;99.90;;;;;;5058780;28;20189;-83
2022/09/25 17:08:51;;;;;;;8.83;5.27;;;11.30;99.90;;;;;;5058239;28;20570;-82
2022/09/25 17:11:19;;;;;;;7.90;5.27;;;11.30;99.90;;;;;;5058857;28;20209;-84
2022/09/25 17:13:46;;;;;;;9.53;7.00;;;11.30;99.90;;;;;;5060274;28;20318;-83
2022/09/25 17:16:12;;;;;;;7.50;5.87;;;11.30;99.90;;;;;;5058603;28;20174;-82
2022/09/25 17:18:38;;;;;;;7.50;5.90;;;11.30;99.90;;;;;;5057969;28;20182;-84
2022/09/25 17:21:11;;;;;;;8.70;6.63;;;11.30;99.90;;;;;;5058345;28;20178;-83
2022/09/25 17:23:38;;;;;;;6.17;5.57;;;11.20;99.90;;;;;;5058731;28;20292;-83
2022/09/25 17:26:14;;;;;;;7.77;6.37;;;11.20;99.90;;;;;;5059866;28;20275;-83
2022/09/25 17:28:40;;;;;;;8.97;6.00;;;11.20;99.90;;;;;;5060385;28;20173;-82
2022/09/25 17:31:08;;;;;;;10.30;7.67;;;11.20;99.90;;;;;;5058964;28;20304;-85
2022/09/25 17:33:34;;;;;;;13.80;9.60;;;11.20;99.90;;;;;;5059408;28;20292;-84
2022/09/25 17:36:05;;;;;;;11.00;7.60;;;11.10;99.90;;;;;;5060013;28;20208;-85
2022/09/25 17:38:32;;;;;;;7.43;6.13;;;11.10;99.90;;;;;;5059936;28;20261;-85
2022/09/25 17:41:00;;;;;;;8.00;6.40;;;11.10;99.90;;;;;;5059179;28;20223;-84
2022/09/25 17:43:25;;;;;;;9.90;6.30;;;11.00;99.90;;;;;;5059096;28;20201;-85
2022/09/25 17:45:56;;;;;;;7.03;5.40;;;11.10;99.90;;;;;;5060431;28;20319;-85
2022/09/25 17:48:26;;;;;;;9.13;6.00;;;11.10;99.90;;;;;;5062085;28;20165;-83
2022/09/25 17:50:55;;;;;;;10.60;5.73;;;11.00;99.90;;;;;;5062490;28;20562;-84
2022/09/25 17:53:27;;;;;;;6.23;5.13;;;11.00;99.90;;;;;;5060130;28;20202;-85
2022/09/25 17:55:53;;;;;;;6.43;5.13;;;11.00;99.90;;;;;;5060335;28;20237;-83
2022/09/25 17:58:18;;;;;;;7.97;5.03;;;10.90;99.90;;;;;;5059906;28;20201;-83
2022/09/25 18:00:44;;;;;;;8.37;6.30;;;10.90;99.90;;;;;;5060631;28;20196;-84
2022/09/25 18:03:14;;;;;;;5.43;4.80;;;10.80;99.90;;;;;;5059209;28;20181;-85
2022/09/25 18:05:41;;;;;;;6.37;5.13;;;10.80;99.90;;;;;;5059987;28;20181;-84
2022/09/25 18:08:08;;;;;;;7.60;5.60;;;10.90;99.90;;;;;;5059201;28;20185;-86
2022/09/25 18:10:35;;;;;;;6.90;6.03;;;10.90;99.90;;;;;;5060980;28;20205;-84
2022/09/25 18:13:02;;;;;;;8.87;6.20;;;10.90;99.90;;;;;;5060585;28;20178;-86
2022/09/25 18:15:29;;;;;;;5.90;5.30;;;10.80;99.90;;;;;;5072622;28;20174;-81
2022/09/25 18:17:54;;;;;;;7.90;5.93;;;10.80;99.90;;;;;;5073734;28;20178;-80
2022/09/25 18:23:05;;;;;;;8.00;5.80;;;10.80;99.90;;;;;;5060794;28;20259;-86
2022/09/25 18:25:32;;;;;;;6.97;6.27;;;10.80;99.90;;;;;;5058951;28;20203;-84
2022/09/25 18:27:58;;;;;;;7.30;6.60;;;10.80;99.90;;;;;;5058830;28;20178;-85
2022/09/25 18:30:24;;;;;;;8.57;7.60;;;10.90;99.90;;;;;;5058873;28;20232;-84
2022/09/25 18:32:51;;;;;;;11.43;9.23;;;10.90;99.90;;;;;;5061190;28;20185;-86
2022/09/25 18:35:18;;;;;;;11.13;10.03;;;10.90;99.90;;;;;;5061042;28;20193;-87
2022/09/25 18:37:44;;;;;;;11.80;9.37;;;10.90;99.90;;;;;;5060810;28;20181;-86
2022/09/25 18:40:12;;;;;;;12.67;9.73;;;10.90;99.90;;;;;;5059789;28;20591;-84
2022/09/25 18:42:37;;;;;;;11.23;8.50;;;11.00;99.90;;;;;;5058927;28;20245;-85
2022/09/25 18:45:06;;;;;;;9.27;7.20;;;10.90;99.90;;;;;;5060110;28;20205;-84
2022/09/25 18:47:33;;;;;;;8.30;5.77;;;10.90;99.90;;;;;;5059903;28;20265;-85
2022/09/25 18:49:59;;;;;;;7.57;5.40;;;10.90;99.90;;;;;;5060834;28;20246;-84
2022/09/25 18:52:25;;;;;;;7.13;5.23;;;10.80;99.90;;;;;;5059787;28;20184;-85
2022/09/25 18:54:51;;;;;;;7.17;4.63;;;10.80;99.90;;;;;;5058622;28;20204;-85
2022/09/25 18:57:17;;;;;;;7.10;4.33;;;10.80;99.90;;;;;;5058156;28;20180;-84
2022/09/25 18:59:43;;;;;;;5.67;4.53;;;10.70;99.90;;;;;;5057739;28;20192;-84
2022/09/25 19:02:20;;;;;;;7.10;4.40;;;10.80;99.90;;;;;;5059081;28;20176;-84
2022/09/25 19:04:46;;;;;;;5.57;4.33;;;10.80;99.90;;;;;;5058634;28;20256;-83
2022/09/25 19:07:13;;;;;;;4.80;4.30;;;10.80;99.90;;;;;;5059901;28;20224;-85
2022/09/25 19:09:39;;;;;;;5.93;4.70;;;10.80;99.90;;;;;;5058447;28;20203;-85
2022/09/25 19:12:06;;;;;;;5.03;4.03;;;10.80;99.90;;;;;;5057904;28;20695;-83
2022/09/25 19:14:34;;;;;;;5.03;4.30;;;10.80;99.90;;;;;;5060724;28;20639;-83
2022/09/25 19:17:01;;;;;;;5.37;4.40;;;10.80;99.90;;;;;;5059681;28;20276;-83
2022/09/25 19:19:33;;;;;;;6.63;3.40;;;10.70;99.90;;;;;;5058337;28;20178;-83
2022/09/25 19:22:00;;;;;;;4.30;3.83;;;10.70;99.90;;;;;;5058002;28;20234;-87
2022/09/25 19:24:26;;;;;;;3.20;2.53;;;10.60;99.90;;;;;;5058305;28;20200;-85
2022/09/25 19:26:52;;;;;;;3.60;3.10;;;10.60;99.90;;;;;;5060164;28;20171;-85
2022/09/25 19:29:18;;;;;;;3.73;3.17;;;10.50;99.90;;;;;;5059806;28;20190;-85
2022/09/25 19:31:43;;;;;;;4.10;3.10;;;10.50;99.90;;;;;;5058276;28;20202;-84
2022/09/25 19:34:10;;;;;;;3.67;3.30;;;10.50;99.90;;;;;;5058505;28;20197;-86
2022/09/25 19:36:36;;;;;;;4.43;3.07;;;10.50;99.90;;;;;;5058327;28;20177;-85
2022/09/25 19:39:03;;;;;;;4.37;3.10;;;10.50;99.90;;;;;;5058429;28;20345;-86
2022/09/25 19:41:32;;;;;;;2.97;2.60;;;10.50;99.90;;;;;;5060452;28;20180;-86
2022/09/25 19:44:01;;;;;;;5.10;3.13;;;10.50;99.90;;;;;;5058671;28;20275;-86
2022/09/25 19:46:28;;;;;;;3.00;2.70;;;10.50;99.90;;;;;;5056037;28;20553;-86
2022/09/25 19:48:54;;;;;;;4.70;3.60;;;10.40;99.90;;;;;;5056144;28;20178;-82
2022/09/25 19:51:21;;;;;;;3.40;2.73;;;10.50;99.90;;;;;;5055963;28;20599;-82
2022/09/25 19:53:47;;;;;;;3.17;2.60;;;10.40;99.90;;;;;;5056064;28;20195;-83
2022/09/25 19:56:13;;;;;;;3.40;2.63;;;10.40;99.90;;;;;;5056470;28;20741;-83
2022/09/25 19:58:40;;;;;;;3.53;2.83;;;10.50;99.90;;;;;;5056332;28;20620;-84
2022/09/25 20:01:14;;;;;;;5.57;2.90;;;10.40;99.90;;;;;;5056021;28;20183;-84
2022/09/25 20:03:40;;;;;;;3.00;2.70;;;10.40;99.90;;;;;;5054888;28;20210;-82
2022/09/25 20:06:07;;;;;;;3.57;3.03;;;10.40;99.90;;;;;;5055351;28;20188;-82
2022/09/25 20:08:33;;;;;;;4.47;3.00;;;10.40;99.90;;;;;;5054090;28;20189;-83
2022/09/25 20:10:59;;;;;;;4.30;2.63;;;;;;;;;;5054135;28;20250;-83
2022/09/25 20:13:25;;;;;;;4.27;2.90;;;10.40;99.90;;;;;;5055951;28;20280;-84
2022/09/25 20:15:53;;;;;;;3.33;3.03;;;10.40;99.90;;;;;;5054795;28;20608;-85
2022/09/25 20:18:20;;;;;;;3.10;2.80;;;10.40;99.90;;;;;;5056191;28;20264;-85
2022/09/25 20:20:46;;;;;;;3.23;2.93;;;10.40;99.90;;;;;;5055686;28;20691;-84
2022/09/25 20:23:11;;;;;;;3.07;2.77;;;10.40;99.90;;;;;;5056851;28;20216;-84
2022/09/25 20:25:38;;;;;;;3.87;3.17;;;10.40;99.90;;;;;;5058341;28;20187;-85
2022/09/25 20:28:03;;;;;;;4.73;3.47;;;10.40;99.90;;;;;;5057183;28;20174;-85
2022/09/25 20:30:34;;;;;;;5.57;3.47;;;10.40;99.90;;;;;;5057524;28;20210;-86
2022/09/25 20:33:00;;;;;;;5.20;3.47;;;;;;;;;;5056344;28;20286;-84
2022/09/25 20:35:25;;;;;;;7.00;4.43;;;8.20;99.90;;;;;;5056358;28;20177;-85
2022/09/25 20:37:51;;;;;;;3.93;3.20;;;10.50;99.90;;;;;;5055866;28;20174;-86
2022/09/25 20:40:17;;;;;;;3.20;2.90;;;10.50;99.90;;;;;;5056303;28;20251;-85
2022/09/25 20:42:43;;;;;;;3.57;2.93;;;;;;;;;;5057285;28;20190;-83
2022/09/25 20:45:09;;;;;;;3.43;3.10;;;10.50;99.90;;;;;;5055160;28;20667;-84
2022/09/25 20:47:38;;;;;;;3.70;3.13;;;10.60;99.90;;;;;;5055625;28;20188;-85
2022/09/25 20:50:04;;;;;;;6.43;5.20;;;10.50;99.90;;;;;;5056889;28;20202;-85
2022/09/25 20:52:33;;;;;;;7.33;5.60;;;10.60;99.90;;;;;;5057492;28;20198;-85
2022/09/25 20:54:59;;;;;;;12.50;10.47;;;10.60;99.90;;;;;;5056139;28;20557;-84
2022/09/25 20:57:25;;;;;;;10.33;6.93;;;;;;;;;;5054658;28;20182;-84
2022/09/25 20:59:51;;;;;;;6.47;3.93;;;10.60;99.90;;;;;;5054234;28;20583;-85
2022/09/25 21:02:17;;;;;;;8.03;5.37;;;;;;;;;;5055351;28;20272;-85
2022/09/25 21:04:43;;;;;;;21.60;10.50;;;10.50;99.90;;;;;;5054885;28;20255;-86
2022/09/25 21:07:09;;;;;;;6.53;4.73;;;10.50;99.90;;;;;;5054845;28;20178;-85
2022/09/25 21:09:35;;;;;;;8.27;5.17;;;10.40;99.90;;;;;;5055605;28;20178;-85
2022/09/25 21:12:04;;;;;;;12.17;6.73;;;10.40;99.90;;;;;;5055774;28;20288;-85
2022/09/25 21:14:32;;;;;;;4.70;3.30;;;10.40;99.90;;;;;;5055488;28;20553;-86
2022/09/25 21:16:58;;;;;;;4.10;2.70;;;10.40;99.90;;;;;;5055588;28;20173;-83
2022/09/25 21:19:25;;;;;;;3.60;2.80;;;10.40;99.90;;;;;;5058867;28;20207;-86
2022/09/25 21:21:50;;;;;;;3.43;2.97;;;10.40;99.90;;;;;;5059242;28;20181;-85
2022/09/25 21:24:19;;;;;;;4.60;3.10;;;10.40;99.90;;;;;;5059017;28;20211;-85
2022/09/25 21:26:45;;;;;;;4.03;3.43;;;10.40;99.90;;;;;;5059231;28;20182;-86
2022/09/25 21:29:13;;;;;;;4.67;3.57;;;10.40;99.90;;;;;;5059333;28;20183;-85
2022/09/25 21:31:39;;;;;;;7.63;4.93;;;10.40;99.90;;;;;;5059136;28;20666;-85
2022/09/25 21:34:09;;;;;;;7.03;3.40;;;10.40;99.90;;;;;;5060138;28;20189;-86
2022/09/25 21:36:34;;;;;;;6.90;2.53;;;10.40;99.90;;;;;;5059182;28;20273;-86
2022/09/25 21:39:00;;;;;;;4.70;2.50;;;10.40;99.90;;;;;;5059485;28;20200;-85
2022/09/25 21:41:28;;;;;;;2.30;2.10;;;10.40;99.90;;;;;;5059522;28;20286;-85
2022/09/25 21:43:55;;;;;;;3.00;2.53;;;10.30;99.90;;;;;;5058182;28;20204;-84
2022/09/25 21:46:22;;;;;;;2.70;2.40;;;10.30;99.90;;;;;;5057802;28;20268;-84